Time,TemperatureF,DewpointF,PressureIn,WindDirection,WindDirectionDegrees,WindSpeedMPH,WindSpeedGustMPH,Humidity,HourlyPrecipIn,Conditions,Clouds,dailyrainin,SoftwareType,DateUTC
2013-08-26 00:01:00,68.3,66.2,30.29,ESE,111,0.0,0.0,93,0.00,,,0.00,VWS V14.01,2013-08-26 04:01:00,
2013-08-26 00:06:00,68.4,66.0,30.28,ESE,111,0.0,0.0,92,0.00,,,0.00,VWS V14.01,2013-08-26 04:06:00,
2013-08-26 00:11:00,68.5,66.1,30.28,ESE,111,0.0,1.6,92,0.00,,,0.00,VWS V14.01,2013-08-26 04:11:00,
2013-08-26 00:16:00,68.6,66.2,30.28,ESE,111,0.0,0.0,92,0.00,,,0.00,VWS V14.01,2013-08-26 04:16:00,
2013-08-26 00:21:00,68.6,66.2,30.28,ESE,111,0.0,0.0,92,0.00,,,0.00,VWS V14.01,2013-08-26 04:21:00,
2013-08-26 00:26:00,68.6,66.2,30.28,ESE,111,0.0,0.0,92,0.00,,,0.00,VWS V14.01,2013-08-26 04:26:00,
2013-08-26 00:31:00,68.5,66.1,30.28,ESE,111,0.0,0.0,92,0.00,,,0.00,VWS V14.01,2013-08-26 04:31:00,
2013-08-26 00:36:00,68.5,66.1,30.28,ESE,111,0.0,0.0,92,0.00,,,0.00,VWS V14.01,2013-08-26 04:36:00,
2013-08-26 00:41:00,68.5,66.1,30.28,ESE,111,0.0,0.0,92,0.00,,,0.00,VWS V14.01,2013-08-26 04:41:00,
2013-08-26 00:46:00,68.4,66.0,30.28,ESE,111,0.0,0.0,92,0.00,,,0.00,VWS V14.01,2013-08-26 04:46:00,
2013-08-26 00:51:00,68.3,65.9,30.28,ESE,111,0.0,0.0,92,0.00,,,0.00,VWS V14.01,2013-08-26 04:51:00,
2013-08-26 00:56:00,68.0,65.6,30.28,ESE,111,0.0,0.0,92,0.00,,,0.00,VWS V14.01,2013-08-26 04:56:00,
2013-08-26 01:01:00,67.9,65.5,30.28,ESE,111,0.0,0.0,92,0.00,,,0.00,VWS V14.01,2013-08-26 05:01:00,
2013-08-26 01:06:00,67.7,65.3,30.28,ESE,111,0.0,0.0,92,0.00,,,0.00,VWS V14.01,2013-08-26 05:06:00,
2013-08-26 01:11:00,67.5,65.4,30.28,ESE,111,0.0,0.0,93,0.00,,,0.00,VWS V14.01,2013-08-26 05:11:00,
2013-08-26 01:16:00,67.5,65.4,30.28,ESE,111,0.0,0.0,93,0.00,,,0.00,VWS V14.01,2013-08-26 05:16:00,
2013-08-26 01:21:00,67.5,65.4,30.28,ESE,111,0.0,0.0,93,0.00,,,0.00,VWS V14.01,2013-08-26 05:21:00,
2013-08-26 01:26:00,67.4,65.3,30.28,ESE,111,0.0,0.0,93,0.00,,,0.00,VWS V14.01,2013-08-26 05:26:00,
2013-08-26 01:31:00,67.2,65.1,30.28,ESE,111,0.0,0.0,93,0.00,,,0.00,VWS V14.01,2013-08-26 05:31:00,
2013-08-26 01:36:00,67.1,65.0,30.28,ESE,111,0.0,0.0,93,0.00,,,0.00,VWS V14.01,2013-08-26 05:36:00,
2013-08-26 01:41:00,67.0,64.9,30.28,ESE,111,0.0,0.0,93,0.00,,,0.00,VWS V14.01,2013-08-26 05:41:00,
2013-08-26 01:46:00,67.0,64.9,30.28,ESE,111,0.0,0.0,93,0.00,,,0.00,VWS V14.01,2013-08-26 05:46:00,
2013-08-26 01:51:00,67.0,64.9,30.27,ESE,112,0.0,0.0,93,0.00,,,0.00,VWS V14.01,2013-08-26 05:51:00,
2013-08-26 01:56:00,66.9,64.8,30.27,ESE,111,0.0,0.0,93,0.00,,,0.00,VWS V14.01,2013-08-26 05:56:00,
2013-08-26 02:00:00,66.8,64.7,30.27,ESE,111,0.0,0.0,93,0.00,,,0.00,VWS V14.01,2013-08-26 06:00:00,
2013-08-26 02:05:00,66.6,64.5,30.27,ESE,111,0.0,0.0,93,0.00,,,0.00,VWS V14.01,2013-08-26 06:05:00,
2013-08-26 02:10:00,66.6,64.8,30.27,ESE,111,0.0,0.0,94,0.00,,,0.00,VWS V14.01,2013-08-26 06:10:00,
2013-08-26 02:15:00,66.6,64.8,30.27,ESE,111,0.0,0.0,94,0.00,,,0.00,VWS V14.01,2013-08-26 06:15:00,
2013-08-26 02:20:00,66.6,64.8,30.27,ESE,111,0.0,0.0,94,0.00,,,0.00,VWS V14.01,2013-08-26 06:20:00,
2013-08-26 02:25:00,66.4,64.6,30.26,ESE,111,0.0,0.0,94,0.00,,,0.00,VWS V14.01,2013-08-26 06:25:00,
2013-08-26 02:30:00,66.4,64.6,30.27,ESE,111,0.0,0.0,94,0.00,,,0.00,VWS V14.01,2013-08-26 06:30:00,
2013-08-26 02:35:00,66.5,64.7,30.27,ESE,112,0.0,0.0,94,0.00,,,0.00,VWS V14.01,2013-08-26 06:35:00,
2013-08-26 02:40:00,66.5,64.7,30.27,ESE,112,0.0,0.0,94,0.00,,,0.00,VWS V14.01,2013-08-26 06:40:00,
2013-08-26 02:45:00,66.4,64.6,30.27,ESE,111,0.0,0.0,94,0.00,,,0.00,VWS V14.01,2013-08-26 06:45:00,
2013-08-26 02:50:00,66.3,64.5,30.26,ESE,111,0.0,0.0,94,0.00,,,0.00,VWS V14.01,2013-08-26 06:50:00,
2013-08-26 02:55:00,66.4,64.6,30.27,ESE,111,0.0,0.0,94,0.00,,,0.00,VWS V14.01,2013-08-26 06:55:00,
2013-08-26 03:00:00,66.4,64.6,30.26,ESE,111,0.0,0.0,94,0.00,,,0.00,VWS V14.01,2013-08-26 07:00:00,
2013-08-26 03:05:00,66.3,64.5,30.26,ESE,111,0.0,0.0,94,0.00,,,0.00,VWS V14.01,2013-08-26 07:05:00,
2013-08-26 03:10:00,66.3,64.5,30.26,ESE,111,0.0,0.0,94,0.00,,,0.00,VWS V14.01,2013-08-26 07:10:00,
2013-08-26 03:15:00,66.1,64.3,30.26,ESE,111,0.0,0.0,94,0.00,,,0.00,VWS V14.01,2013-08-26 07:15:00,
2013-08-26 03:20:00,66.2,64.4,30.26,ESE,111,0.0,0.0,94,0.00,,,0.00,VWS V14.01,2013-08-26 07:20:00,
2013-08-26 03:25:00,66.1,64.3,30.26,ESE,111,0.0,0.0,94,0.00,,,0.00,VWS V14.01,2013-08-26 07:25:00,
2013-08-26 03:30:00,65.8,64.0,30.26,ESE,111,0.0,0.0,94,0.00,,,0.00,VWS V14.01,2013-08-26 07:30:00,
2013-08-26 03:35:00,65.7,63.9,30.26,ESE,111,0.0,0.0,94,0.00,,,0.00,VWS V14.01,2013-08-26 07:35:00,
2013-08-26 03:40:00,65.5,63.7,30.26,ESE,111,0.0,0.0,94,0.00,,,0.00,VWS V14.01,2013-08-26 07:40:00,
2013-08-26 03:45:00,65.4,63.6,30.26,ESE,111,0.0,0.0,94,0.00,,,0.00,VWS V14.01,2013-08-26 07:45:00,
2013-08-26 03:50:00,65.2,63.4,30.26,ESE,111,0.0,0.0,94,0.00,,,0.00,VWS V14.01,2013-08-26 07:50:00,
2013-08-26 03:55:00,65.3,63.8,30.26,ESE,111,0.0,0.0,95,0.00,,,0.00,VWS V14.01,2013-08-26 07:55:00,
2013-08-26 04:00:00,65.4,63.9,30.26,ESE,111,0.0,0.0,95,0.00,,,0.00,VWS V14.01,2013-08-26 08:00:00,
2013-08-26 04:05:00,65.5,64.0,30.26,ESE,111,0.0,0.0,95,0.00,,,0.00,VWS V14.01,2013-08-26 08:05:00,
2013-08-26 04:10:00,65.5,64.0,30.26,ESE,111,0.0,0.0,95,0.00,,,0.00,VWS V14.01,2013-08-26 08:10:00,
2013-08-26 04:15:00,65.5,64.0,30.25,ESE,111,0.0,0.0,95,0.00,,,0.00,VWS V14.01,2013-08-26 08:15:00,
2013-08-26 04:20:00,65.5,64.0,30.25,ESE,112,0.0,0.0,95,0.00,,,0.00,VWS V14.01,2013-08-26 08:20:00,
2013-08-26 04:25:00,65.2,63.7,30.25,ESE,111,0.0,0.0,95,0.00,,,0.00,VWS V14.01,2013-08-26 08:25:00,
2013-08-26 04:30:00,65.1,63.6,30.25,ESE,111,0.0,0.0,95,0.00,,,0.00,VWS V14.01,2013-08-26 08:30:00,
2013-08-26 04:35:00,64.8,63.0,30.25,ESE,111,0.0,0.0,94,0.00,,,0.00,VWS V14.01,2013-08-26 08:35:00,
2013-08-26 04:40:00,64.7,63.2,30.25,ESE,111,0.0,0.0,95,0.00,,,0.00,VWS V14.01,2013-08-26 08:40:00,
2013-08-26 04:45:00,64.7,63.2,30.25,ESE,111,0.0,0.0,95,0.00,,,0.00,VWS V14.01,2013-08-26 08:45:00,
2013-08-26 04:50:00,64.8,63.3,30.25,ESE,111,0.0,0.0,95,0.00,,,0.00,VWS V14.01,2013-08-26 08:50:00,
2013-08-26 04:55:00,64.8,63.3,30.25,ESE,111,0.0,0.0,95,0.00,,,0.00,VWS V14.01,2013-08-26 08:55:00,
2013-08-26 05:00:00,65.0,63.5,30.25,ESE,112,0.0,0.0,95,0.00,,,0.00,VWS V14.01,2013-08-26 09:00:00,
2013-08-26 05:05:00,64.9,63.4,30.24,ESE,111,0.0,0.0,95,0.00,,,0.00,VWS V14.01,2013-08-26 09:05:00,
2013-08-26 05:10:00,64.7,63.2,30.24,ESE,111,0.0,0.0,95,0.00,,,0.00,VWS V14.01,2013-08-26 09:10:00,
2013-08-26 05:15:00,64.4,62.9,30.24,ESE,111,0.0,0.0,95,0.00,,,0.00,VWS V14.01,2013-08-26 09:15:00,
2013-08-26 05:20:00,64.1,62.6,30.25,ESE,111,0.0,0.0,95,0.00,,,0.00,VWS V14.01,2013-08-26 09:20:00,
2013-08-26 05:25:00,64.0,62.5,30.25,ESE,111,0.0,0.0,95,0.00,,,0.00,VWS V14.01,2013-08-26 09:25:00,
2013-08-26 05:30:00,64.1,62.6,30.25,ESE,111,0.0,0.0,95,0.00,,,0.00,VWS V14.01,2013-08-26 09:30:00,
2013-08-26 05:35:00,64.3,62.8,30.25,ESE,111,0.0,0.0,95,0.00,,,0.00,VWS V14.01,2013-08-26 09:35:00,
2013-08-26 05:40:00,64.4,62.9,30.25,ESE,111,0.0,0.0,95,0.00,,,0.00,VWS V14.01,2013-08-26 09:40:00,
2013-08-26 05:45:00,64.4,62.9,30.25,ESE,111,0.0,0.0,95,0.00,,,0.00,VWS V14.01,2013-08-26 09:45:00,
2013-08-26 05:50:00,64.2,62.7,30.25,ESE,111,0.0,0.0,95,0.00,,,0.00,VWS V14.01,2013-08-26 09:50:00,
2013-08-26 05:55:00,64.0,62.5,30.25,ESE,111,0.0,0.0,95,0.00,,,0.00,VWS V14.01,2013-08-26 09:55:00,
2013-08-26 06:00:00,64.0,62.5,30.25,ESE,111,0.0,0.0,95,0.00,,,0.00,VWS V14.01,2013-08-26 10:00:00,
2013-08-26 06:05:00,64.0,62.5,30.25,ESE,111,0.0,0.0,95,0.00,,,0.00,VWS V14.01,2013-08-26 10:05:00,
2013-08-26 06:10:00,64.1,62.6,30.25,ESE,111,0.0,0.0,95,0.00,,,0.00,VWS V14.01,2013-08-26 10:10:00,
2013-08-26 06:15:00,63.9,62.4,30.25,ESE,111,0.0,0.0,95,0.00,,,0.00,VWS V14.01,2013-08-26 10:15:00,
2013-08-26 06:20:00,63.9,62.4,30.25,ESE,112,0.0,0.0,95,0.00,,,0.00,VWS V14.01,2013-08-26 10:20:00,
2013-08-26 06:25:00,63.8,62.3,30.25,ESE,111,0.0,0.0,95,0.00,,,0.00,VWS V14.01,2013-08-26 10:25:00,
2013-08-26 06:30:00,63.9,62.7,30.26,ESE,111,0.0,0.0,96,0.00,,,0.00,VWS V14.01,2013-08-26 10:30:00,
2013-08-26 06:35:00,64.1,62.9,30.26,ESE,111,0.0,0.0,96,0.00,,,0.00,VWS V14.01,2013-08-26 10:35:00,
2013-08-26 06:40:00,64.2,63.0,30.26,ESE,111,0.0,0.0,96,0.00,,,0.00,VWS V14.01,2013-08-26 10:40:00,
2013-08-26 06:45:00,64.4,63.2,30.26,ESE,111,0.0,0.0,96,0.00,,,0.00,VWS V14.01,2013-08-26 10:45:00,
2013-08-26 06:50:00,64.5,63.3,30.26,ESE,111,0.0,0.0,96,0.00,,,0.00,VWS V14.01,2013-08-26 10:50:00,
2013-08-26 06:55:00,64.4,63.2,30.26,ESE,112,0.0,0.0,96,0.00,,,0.00,VWS V14.01,2013-08-26 10:55:00,
2013-08-26 07:00:00,64.4,63.2,30.27,ESE,111,0.0,0.0,96,0.00,,,0.00,VWS V14.01,2013-08-26 11:00:00,
2013-08-26 07:05:00,64.5,63.3,30.27,ESE,111,0.0,0.0,96,0.00,,,0.00,VWS V14.01,2013-08-26 11:05:00,
2013-08-26 07:10:00,64.5,63.3,30.27,ESE,112,0.0,0.0,96,0.00,,,0.00,VWS V14.01,2013-08-26 11:10:00,
2013-08-26 07:15:00,64.6,63.4,30.27,ESE,111,0.0,0.0,96,0.00,,,0.00,VWS V14.01,2013-08-26 11:15:00,
2013-08-26 07:19:00,64.8,63.6,30.27,ESE,111,0.0,0.0,96,0.00,,,0.00,VWS V14.01,2013-08-26 11:19:00,
2013-08-26 07:24:00,64.9,63.7,30.28,ESE,111,0.0,0.0,96,0.00,,,0.00,VWS V14.01,2013-08-26 11:24:00,
2013-08-26 07:29:00,65.1,63.9,30.28,ESE,111,0.0,0.0,96,0.00,,,0.00,VWS V14.01,2013-08-26 11:29:00,
2013-08-26 07:34:00,65.2,64.0,30.28,ESE,111,0.0,0.0,96,0.00,,,0.00,VWS V14.01,2013-08-26 11:34:00,
2013-08-26 07:39:00,65.4,64.2,30.28,ESE,111,0.0,0.0,96,0.00,,,0.00,VWS V14.01,2013-08-26 11:39:00,
2013-08-26 07:44:00,65.8,64.6,30.28,ESE,111,0.0,0.0,96,0.00,,,0.00,VWS V14.01,2013-08-26 11:44:00,
2013-08-26 07:49:00,66.0,64.8,30.28,ESE,111,0.0,0.0,96,0.00,,,0.00,VWS V14.01,2013-08-26 11:49:00,
2013-08-26 07:54:00,66.3,65.1,30.28,ESE,111,0.0,0.0,96,0.00,,,0.00,VWS V14.01,2013-08-26 11:54:00,
2013-08-26 07:59:00,66.6,65.4,30.28,ESE,111,0.0,0.0,96,0.00,,,0.00,VWS V14.01,2013-08-26 11:59:00,
2013-08-26 08:04:00,67.1,65.9,30.28,ESE,111,0.0,1.6,96,0.00,,,0.00,VWS V14.01,2013-08-26 12:04:00,
2013-08-26 08:09:00,67.7,66.5,30.28,South,180,0.0,1.6,96,0.00,,,0.00,VWS V14.01,2013-08-26 12:09:00,
2013-08-26 08:14:00,68.3,67.1,30.28,South,182,0.0,1.6,96,0.00,,,0.00,VWS V14.01,2013-08-26 12:14:00,
2013-08-26 08:19:00,69.0,67.5,30.28,SSW,204,0.0,1.6,95,0.00,,,0.00,VWS V14.01,2013-08-26 12:19:00,
2013-08-26 08:24:00,69.3,66.9,30.29,ENE,65,1.6,1.6,92,0.00,,,0.00,VWS V14.01,2013-08-26 12:24:00,
2013-08-26 08:29:00,69.1,66.7,30.29,ENE,64,0.0,0.0,92,0.00,,,0.00,VWS V14.01,2013-08-26 12:29:00,
2013-08-26 08:34:00,69.2,66.8,30.29,ENE,63,0.0,0.0,92,0.00,,,0.00,VWS V14.01,2013-08-26 12:34:00,
2013-08-26 08:39:00,69.9,67.5,30.29,ENE,63,0.0,0.0,92,0.00,,,0.00,VWS V14.01,2013-08-26 12:39:00,
2013-08-26 08:44:00,70.7,67.6,30.29,SW,215,0.0,3.2,90,0.00,,,0.00,VWS V14.01,2013-08-26 12:44:00,
2013-08-26 08:49:00,71.2,67.5,30.29,SW,214,3.2,4.8,88,0.00,,,0.00,VWS V14.01,2013-08-26 12:49:00,
2013-08-26 08:54:00,71.7,67.6,30.29,SW,218,3.2,6.4,87,0.00,,,0.00,VWS V14.01,2013-08-26 12:54:00,
2013-08-26 08:59:00,72.2,67.8,30.29,SW,222,3.2,6.4,86,0.00,,,0.00,VWS V14.01,2013-08-26 12:59:00,
2013-08-26 09:04:00,72.8,68.0,30.29,SSW,212,4.8,8.0,85,0.00,,,0.00,VWS V14.01,2013-08-26 13:04:00,
2013-08-26 09:09:00,73.4,67.9,30.29,West,260,4.8,4.8,83,0.00,,,0.00,VWS V14.01,2013-08-26 13:09:00,
2013-08-26 09:14:00,73.9,68.1,30.29,SW,218,4.8,4.8,82,0.00,,,0.00,VWS V14.01,2013-08-26 13:14:00,
2013-08-26 09:19:00,74.3,68.1,30.29,SW,228,3.2,6.4,81,0.00,,,0.00,VWS V14.01,2013-08-26 13:19:00,
2013-08-26 09:24:00,74.7,68.1,30.29,SSW,201,3.2,9.6,80,0.00,,,0.00,VWS V14.01,2013-08-26 13:24:00,
2013-08-26 09:29:00,75.0,68.1,30.29,West,266,6.4,6.4,79,0.00,,,0.00,VWS V14.01,2013-08-26 13:29:00,
2013-08-26 09:34:00,75.4,68.1,30.29,SSW,197,3.2,8.0,78,0.00,,,0.00,VWS V14.01,2013-08-26 13:34:00,
2013-08-26 09:39:00,75.7,68.0,30.29,WNW,282,6.4,8.0,77,0.00,,,0.00,VWS V14.01,2013-08-26 13:39:00,
2013-08-26 09:44:00,75.8,68.1,30.29,WNW,287,6.4,9.6,77,0.00,,,0.00,VWS V14.01,2013-08-26 13:44:00,
2013-08-26 09:49:00,76.3,68.6,30.29,SW,221,4.8,6.4,77,0.00,,,0.00,VWS V14.01,2013-08-26 13:49:00,
2013-08-26 09:54:00,76.5,68.8,30.29,SW,232,3.2,4.8,77,0.00,,,0.00,VWS V14.01,2013-08-26 13:54:00,
2013-08-26 09:59:00,76.9,68.8,30.29,WSW,248,1.6,6.4,76,0.00,,,0.00,VWS V14.01,2013-08-26 13:59:00,
2013-08-26 10:04:00,77.4,68.9,30.29,WSW,253,3.2,8.0,75,0.00,,,0.00,VWS V14.01,2013-08-26 14:04:00,
2013-08-26 10:09:00,77.8,68.9,30.29,WSW,253,1.6,6.4,74,0.00,,,0.00,VWS V14.01,2013-08-26 14:09:00,
2013-08-26 10:14:00,78.0,68.7,30.29,West,272,8.0,12.8,73,0.00,,,0.00,VWS V14.01,2013-08-26 14:14:00,
2013-08-26 10:19:00,78.5,69.5,30.29,WSW,238,6.4,9.6,74,0.00,,,0.00,VWS V14.01,2013-08-26 14:19:00,
2013-08-26 10:24:00,78.8,69.4,30.29,WSW,257,4.8,8.0,73,0.00,,,0.00,VWS V14.01,2013-08-26 14:24:00,
2013-08-26 10:29:00,78.9,69.5,30.29,WNW,300,3.2,9.6,73,0.00,,,0.00,VWS V14.01,2013-08-26 14:29:00,
2013-08-26 10:34:00,79.0,69.2,30.29,WSW,238,8.0,9.6,72,0.00,,,0.00,VWS V14.01,2013-08-26 14:34:00,
2013-08-26 10:39:00,79.2,69.4,30.29,WSW,247,4.8,9.6,72,0.00,,,0.00,VWS V14.01,2013-08-26 14:39:00,
2013-08-26 10:44:00,79.2,69.4,30.29,SSW,197,3.2,8.0,72,0.00,,,0.00,VWS V14.01,2013-08-26 14:44:00,
2013-08-26 10:49:00,79.5,69.7,30.28,WSW,252,4.8,9.6,72,0.00,,,0.00,VWS V14.01,2013-08-26 14:49:00,
2013-08-26 10:54:00,79.8,69.6,30.28,WSW,240,6.4,11.2,71,0.00,,,0.00,VWS V14.01,2013-08-26 14:54:00,
2013-08-26 10:59:00,80.1,70.7,30.28,WSW,253,1.6,4.8,73,0.00,,,0.00,VWS V14.01,2013-08-26 14:59:00,
2013-08-26 11:04:00,80.8,70.5,30.27,WSW,241,6.4,12.8,71,0.00,,,0.00,VWS V14.01,2013-08-26 15:04:00,
2013-08-26 11:09:00,80.9,70.6,30.27,SW,224,8.0,11.2,71,0.00,,,0.00,VWS V14.01,2013-08-26 15:09:00,
2013-08-26 11:14:00,81.4,70.7,30.27,WNW,302,4.8,4.8,70,0.00,,,0.00,VWS V14.01,2013-08-26 15:14:00,
2013-08-26 11:19:00,81.9,70.7,30.27,WSW,240,6.4,8.0,69,0.00,,,0.00,VWS V14.01,2013-08-26 15:19:00,
2013-08-26 11:24:00,82.1,71.3,30.27,WSW,240,8.0,8.0,70,0.00,,,0.00,VWS V14.01,2013-08-26 15:24:00,
2013-08-26 11:29:00,82.5,71.7,30.27,SW,227,8.0,9.6,70,0.00,,,0.00,VWS V14.01,2013-08-26 15:29:00,
2013-08-26 11:34:00,83.2,71.6,30.27,West,281,4.8,9.6,68,0.00,,,0.00,VWS V14.01,2013-08-26 15:34:00,
2013-08-26 11:39:00,83.5,71.8,30.26,West,276,4.8,11.2,68,0.00,,,0.00,VWS V14.01,2013-08-26 15:39:00,
2013-08-26 11:44:00,83.1,71.4,30.26,NW,307,6.4,9.6,68,0.00,,,0.00,VWS V14.01,2013-08-26 15:44:00,
2013-08-26 11:49:00,83.0,71.4,30.26,WSW,250,4.8,14.4,68,0.00,,,0.00,VWS V14.01,2013-08-26 15:49:00,
2013-08-26 11:54:00,82.9,71.7,30.26,WSW,257,6.4,9.6,69,0.00,,,0.00,VWS V14.01,2013-08-26 15:54:00,
2013-08-26 11:59:00,83.6,71.9,30.25,WSW,257,4.8,14.4,68,0.00,,,0.00,VWS V14.01,2013-08-26 15:59:00,
2013-08-26 12:04:00,83.7,72.0,30.25,West,259,6.4,12.8,68,0.00,,,0.00,VWS V14.01,2013-08-26 16:04:00,
2013-08-26 12:09:00,83.8,71.7,30.25,West,266,9.6,12.8,67,0.00,,,0.00,VWS V14.01,2013-08-26 16:09:00,
2013-08-26 12:14:00,84.3,72.6,30.25,WSW,255,9.6,9.6,68,0.00,,,0.00,VWS V14.01,2013-08-26 16:14:00,
2013-08-26 12:19:00,83.9,71.8,30.25,WSW,254,6.4,9.6,67,0.00,,,0.00,VWS V14.01,2013-08-26 16:19:00,
2013-08-26 12:24:00,83.9,71.3,30.24,WNW,286,6.4,16.0,66,0.00,,,0.00,VWS V14.01,2013-08-26 16:24:00,
2013-08-26 12:29:00,83.6,71.9,30.24,WNW,288,4.8,8.0,68,0.00,,,0.00,VWS V14.01,2013-08-26 16:29:00,
2013-08-26 12:34:00,83.4,71.3,30.24,West,277,6.4,11.2,67,0.00,,,0.00,VWS V14.01,2013-08-26 16:34:00,
2013-08-26 12:39:00,83.5,71.8,30.24,SSE,153,6.4,11.2,68,0.00,,,0.00,VWS V14.01,2013-08-26 16:39:00,
2013-08-26 12:44:00,83.7,72.0,30.24,SSW,210,3.2,9.6,68,0.00,,,0.00,VWS V14.01,2013-08-26 16:44:00,
2013-08-26 12:49:00,83.6,71.1,30.24,West,279,3.2,11.2,66,0.00,,,0.00,VWS V14.01,2013-08-26 16:49:00,
2013-08-26 12:54:00,84.1,71.1,30.24,WSW,253,11.2,17.6,65,0.00,,,0.00,VWS V14.01,2013-08-26 16:54:00,
2013-08-26 12:59:00,84.6,72.0,30.24,SSW,201,4.8,12.8,66,0.00,,,0.00,VWS V14.01,2013-08-26 16:59:00,
2013-08-26 13:03:00,85.1,71.1,30.23,NW,314,12.8,16.0,63,0.00,,,0.00,VWS V14.01,2013-08-26 17:03:00,
2013-08-26 13:08:00,85.0,70.5,30.23,West,267,4.8,11.2,62,0.00,,,0.00,VWS V14.01,2013-08-26 17:08:00,
2013-08-26 13:13:00,85.3,71.3,30.23,WNW,300,8.0,16.0,63,0.00,,,0.00,VWS V14.01,2013-08-26 17:13:00,
2013-08-26 13:18:00,85.5,71.0,30.23,West,259,6.4,9.6,62,0.00,,,0.00,VWS V14.01,2013-08-26 17:18:00,
2013-08-26 13:23:00,85.9,71.4,30.23,WSW,245,12.8,12.8,62,0.00,,,0.00,VWS V14.01,2013-08-26 17:23:00,
2013-08-26 13:28:00,85.1,70.6,30.23,SW,228,1.6,8.0,62,0.00,,,0.00,VWS V14.01,2013-08-26 17:28:00,
2013-08-26 13:33:00,85.2,70.7,30.23,West,266,9.6,11.2,62,0.00,,,0.00,VWS V14.01,2013-08-26 17:33:00,
2013-08-26 13:38:00,85.3,71.3,30.23,WNW,286,0.0,4.8,63,0.00,,,0.00,VWS V14.01,2013-08-26 17:38:00,
2013-08-26 13:43:00,85.3,69.8,30.23,West,266,4.8,8.0,60,0.00,,,0.00,VWS V14.01,2013-08-26 17:43:00,
2013-08-26 13:48:00,85.9,70.9,30.22,SSW,212,6.4,12.8,61,0.00,,,0.00,VWS V14.01,2013-08-26 17:48:00,
2013-08-26 13:53:00,85.6,70.6,30.22,SW,224,8.0,12.8,61,0.00,,,0.00,VWS V14.01,2013-08-26 17:53:00,
2013-08-26 13:58:00,86.3,71.8,30.22,WSW,250,11.2,12.8,62,0.00,,,0.00,VWS V14.01,2013-08-26 17:58:00,
2013-08-26 14:03:00,86.4,70.4,30.22,NNW,337,1.6,9.6,59,0.00,,,0.00,VWS V14.01,2013-08-26 18:03:00,
2013-08-26 14:08:00,86.5,71.0,30.22,NW,320,8.0,9.6,60,0.00,,,0.00,VWS V14.01,2013-08-26 18:08:00,
2013-08-26 14:13:00,86.6,71.1,30.21,West,259,4.8,11.2,60,0.00,,,0.00,VWS V14.01,2013-08-26 18:13:00,
2013-08-26 14:18:00,86.5,71.0,30.21,NW,307,6.4,9.6,60,0.00,,,0.00,VWS V14.01,2013-08-26 18:18:00,
2013-08-26 14:23:00,86.8,70.8,30.21,West,276,1.6,9.6,59,0.00,,,0.00,VWS V14.01,2013-08-26 18:23:00,
2013-08-26 14:28:00,87.1,71.0,30.20,WSW,245,11.2,12.8,59,0.00,,,0.00,VWS V14.01,2013-08-26 18:28:00,
2013-08-26 14:33:00,87.4,71.3,30.20,NW,322,3.2,6.4,59,0.00,,,0.00,VWS V14.01,2013-08-26 18:33:00,
2013-08-26 14:38:00,87.7,71.6,30.20,WSW,253,4.8,8.0,59,0.00,,,0.00,VWS V14.01,2013-08-26 18:38:00,
2013-08-26 14:43:00,87.9,70.3,30.20,WNW,288,4.8,9.6,56,0.00,,,0.00,VWS V14.01,2013-08-26 18:43:00,
2013-08-26 14:48:00,88.6,71.4,30.19,NW,319,8.0,9.6,57,0.00,,,0.00,VWS V14.01,2013-08-26 18:48:00,
2013-08-26 14:53:00,89.0,70.8,30.19,WSW,248,1.6,9.6,55,0.00,,,0.00,VWS V14.01,2013-08-26 18:53:00,
2013-08-26 14:58:00,88.6,71.4,30.19,SW,232,3.2,4.8,57,0.00,,,0.00,VWS V14.01,2013-08-26 18:58:00,
2013-08-26 15:03:00,87.9,70.3,30.19,WSW,250,1.6,6.4,56,0.00,,,0.00,VWS V14.01,2013-08-26 19:03:00,
2013-08-26 15:08:00,87.7,70.6,30.19,West,262,4.8,11.2,57,0.00,,,0.00,VWS V14.01,2013-08-26 19:08:00,
2013-08-26 15:13:00,87.9,70.3,30.19,North,7,6.4,9.6,56,0.00,,,0.00,VWS V14.01,2013-08-26 19:13:00,
2013-08-26 15:18:00,87.5,69.9,30.18,West,279,3.2,6.4,56,0.00,,,0.00,VWS V14.01,2013-08-26 19:18:00,
2013-08-26 15:23:00,87.5,71.4,30.18,NE,39,1.6,3.2,59,0.00,,,0.00,VWS V14.01,2013-08-26 19:23:00,
2013-08-26 15:28:00,88.4,71.2,30.18,NW,320,6.4,8.0,57,0.00,,,0.00,VWS V14.01,2013-08-26 19:28:00,
2013-08-26 15:33:00,88.8,70.6,30.17,West,259,4.8,6.4,55,0.00,,,0.00,VWS V14.01,2013-08-26 19:33:00,
2013-08-26 15:38:00,89.2,70.9,30.17,WSW,254,4.8,4.8,55,0.00,,,0.00,VWS V14.01,2013-08-26 19:38:00,
2013-08-26 15:43:00,88.9,70.7,30.17,WSW,243,3.2,9.6,55,0.00,,,0.00,VWS V14.01,2013-08-26 19:43:00,
2013-08-26 15:48:00,89.3,69.9,30.17,WNW,284,3.2,6.4,53,0.00,,,0.00,VWS V14.01,2013-08-26 19:48:00,
2013-08-26 15:53:00,89.2,70.4,30.17,WSW,243,4.8,8.0,54,0.00,,,0.00,VWS V14.01,2013-08-26 19:53:00,
2013-08-26 15:58:00,89.4,70.0,30.17,WNW,296,3.2,6.4,53,0.00,,,0.00,VWS V14.01,2013-08-26 19:58:00,
2013-08-26 16:03:00,89.1,69.8,30.17,West,274,6.4,12.8,53,0.00,,,0.00,VWS V14.01,2013-08-26 20:03:00,
2013-08-26 16:08:00,88.6,69.3,30.16,WNW,302,8.0,11.2,53,0.00,,,0.00,VWS V14.01,2013-08-26 20:08:00,
2013-08-26 16:13:00,88.5,69.8,30.16,West,279,4.8,9.6,54,0.00,,,0.00,VWS V14.01,2013-08-26 20:13:00,
2013-08-26 16:18:00,89.4,69.5,30.16,WNW,291,3.2,8.0,52,0.00,,,0.00,VWS V14.01,2013-08-26 20:18:00,
2013-08-26 16:23:00,88.8,70.0,30.16,WSW,240,6.4,11.2,54,0.00,,,0.00,VWS V14.01,2013-08-26 20:23:00,
2013-08-26 16:28:00,88.7,70.5,30.15,SW,231,1.6,8.0,55,0.00,,,0.00,VWS V14.01,2013-08-26 20:28:00,
2013-08-26 16:33:00,89.2,70.4,30.15,WSW,239,6.4,12.8,54,0.00,,,0.00,VWS V14.01,2013-08-26 20:33:00,
2013-08-26 16:38:00,88.8,70.0,30.15,WSW,256,4.8,6.4,54,0.00,,,0.00,VWS V14.01,2013-08-26 20:38:00,
2013-08-26 16:43:00,88.6,70.9,30.15,West,260,6.4,9.6,56,0.00,,,0.00,VWS V14.01,2013-08-26 20:43:00,
2013-08-26 16:48:00,88.3,70.6,30.15,SW,236,4.8,16.0,56,0.00,,,0.00,VWS V14.01,2013-08-26 20:48:00,
2013-08-26 16:53:00,88.1,71.0,30.15,West,272,6.4,12.8,57,0.00,,,0.00,VWS V14.01,2013-08-26 20:53:00,
2013-08-26 16:58:00,88.2,70.5,30.15,WSW,238,8.0,14.4,56,0.00,,,0.00,VWS V14.01,2013-08-26 20:58:00,
2013-08-26 17:03:00,88.1,70.4,30.14,WNW,287,3.2,9.6,56,0.00,,,0.00,VWS V14.01,2013-08-26 21:03:00,
2013-08-26 17:08:00,88.0,70.3,30.15,WSW,243,12.8,12.8,56,0.00,,,0.00,VWS V14.01,2013-08-26 21:08:00,
2013-08-26 17:13:00,87.7,70.1,30.14,WSW,246,11.2,12.8,56,0.00,,,0.00,VWS V14.01,2013-08-26 21:13:00,
2013-08-26 17:18:00,87.1,70.5,30.14,SW,236,14.4,14.4,58,0.00,,,0.00,VWS V14.01,2013-08-26 21:18:00,
2013-08-26 17:23:00,86.5,70.5,30.14,SW,224,8.0,14.4,59,0.00,,,0.00,VWS V14.01,2013-08-26 21:23:00,
2013-08-26 17:28:00,86.0,70.5,30.14,SW,217,8.0,14.4,60,0.00,,,0.00,VWS V14.01,2013-08-26 21:28:00,
2013-08-26 17:33:00,85.7,70.7,30.14,WSW,240,3.2,12.8,61,0.00,,,0.00,VWS V14.01,2013-08-26 21:33:00,
2013-08-26 17:38:00,85.5,70.5,30.14,South,187,9.6,14.4,61,0.00,,,0.00,VWS V14.01,2013-08-26 21:38:00,
2013-08-26 17:43:00,85.5,70.5,30.13,WSW,240,6.4,8.0,61,0.00,,,0.00,VWS V14.01,2013-08-26 21:43:00,
2013-08-26 17:48:00,85.7,70.7,30.14,WSW,242,6.4,9.6,61,0.00,,,0.00,VWS V14.01,2013-08-26 21:48:00,
2013-08-26 17:53:00,85.8,70.8,30.14,West,261,8.0,11.2,61,0.00,,,0.00,VWS V14.01,2013-08-26 21:53:00,
2013-08-26 17:58:00,85.6,70.6,30.14,WSW,246,6.4,8.0,61,0.00,,,0.00,VWS V14.01,2013-08-26 21:58:00,
2013-08-26 18:03:00,85.8,71.3,30.14,SSW,201,4.8,8.0,62,0.00,,,0.00,VWS V14.01,2013-08-26 22:03:00,
2013-08-26 18:08:00,86.0,71.0,30.13,SSW,204,3.2,12.8,61,0.00,,,0.00,VWS V14.01,2013-08-26 22:08:00,
2013-08-26 18:13:00,86.3,71.3,30.13,SW,228,4.8,14.4,61,0.00,,,0.00,VWS V14.01,2013-08-26 22:13:00,
2013-08-26 18:18:00,86.6,70.6,30.13,WSW,240,11.2,12.8,59,0.00,,,0.00,VWS V14.01,2013-08-26 22:18:00,
2013-08-26 18:23:00,86.5,71.0,30.13,SW,215,14.4,14.4,60,0.00,,,0.00,VWS V14.01,2013-08-26 22:23:00,
2013-08-26 18:28:00,86.5,71.0,30.13,WSW,248,4.8,11.2,60,0.00,,,0.00,VWS V14.01,2013-08-26 22:28:00,
2013-08-26 18:33:00,86.2,70.7,30.13,WSW,245,9.6,17.6,60,0.00,,,0.00,VWS V14.01,2013-08-26 22:33:00,
2013-08-26 18:38:00,85.8,70.8,30.13,West,259,6.4,14.4,61,0.00,,,0.00,VWS V14.01,2013-08-26 22:38:00,
2013-08-26 18:43:00,85.6,71.1,30.13,SSW,207,12.8,16.0,62,0.00,,,0.00,VWS V14.01,2013-08-26 22:43:00,
2013-08-26 18:48:00,85.2,71.2,30.13,WSW,250,8.0,9.6,63,0.00,,,0.00,VWS V14.01,2013-08-26 22:48:00,
2013-08-26 18:53:00,85.0,71.0,30.13,SW,221,8.0,9.6,63,0.00,,,0.00,VWS V14.01,2013-08-26 22:53:00,
2013-08-26 18:58:00,84.7,71.2,30.13,SW,218,8.0,14.4,64,0.00,,,0.00,VWS V14.01,2013-08-26 22:58:00,
2013-08-26 19:03:00,84.6,71.6,30.12,SW,222,9.6,9.6,65,0.00,,,0.00,VWS V14.01,2013-08-26 23:03:00,
2013-08-26 19:08:00,84.5,71.4,30.12,WSW,248,6.4,11.2,65,0.00,,,0.00,VWS V14.01,2013-08-26 23:08:00,
2013-08-26 19:12:00,84.4,71.8,30.12,WSW,243,8.0,12.8,66,0.00,,,0.00,VWS V14.01,2013-08-26 23:12:00,
2013-08-26 19:17:00,84.3,71.7,30.12,SSW,208,1.6,11.2,66,0.00,,,0.00,VWS V14.01,2013-08-26 23:17:00,
2013-08-26 19:22:00,84.0,71.4,30.12,WSW,253,4.8,6.4,66,0.00,,,0.00,VWS V14.01,2013-08-26 23:22:00,
2013-08-26 19:27:00,83.7,71.6,30.11,SSW,212,4.8,9.6,67,0.00,,,0.00,VWS V14.01,2013-08-26 23:27:00,
2013-08-26 19:32:00,83.5,71.8,30.11,South,187,3.2,9.6,68,0.00,,,0.00,VWS V14.01,2013-08-26 23:32:00,
2013-08-26 19:37:00,83.3,72.1,30.11,SSW,212,6.4,11.2,69,0.00,,,0.00,VWS V14.01,2013-08-26 23:37:00,
2013-08-26 19:42:00,83.1,71.9,30.11,SW,229,4.8,8.0,69,0.00,,,0.00,VWS V14.01,2013-08-26 23:42:00,
2013-08-26 19:47:00,82.8,71.6,30.11,WSW,239,4.8,14.4,69,0.00,,,0.00,VWS V14.01,2013-08-26 23:47:00,
2013-08-26 19:52:00,82.6,71.8,30.11,SW,218,4.8,9.6,70,0.00,,,0.00,VWS V14.01,2013-08-26 23:52:00,
2013-08-26 19:57:00,82.4,71.6,30.11,SSW,207,4.8,6.4,70,0.00,,,0.00,VWS V14.01,2013-08-26 23:57:00,
2013-08-26 20:02:00,82.2,71.4,30.11,WSW,243,8.0,8.0,70,0.00,,,0.00,VWS V14.01,2013-08-27 00:02:00,
2013-08-26 20:07:00,82.0,71.7,30.11,WSW,238,3.2,8.0,71,0.00,,,0.00,VWS V14.01,2013-08-27 00:07:00,
2013-08-26 20:12:00,81.8,71.5,30.11,WSW,242,3.2,6.4,71,0.00,,,0.00,VWS V14.01,2013-08-27 00:12:00,
2013-08-26 20:17:00,81.6,71.7,30.11,WSW,243,3.2,6.4,72,0.00,,,0.00,VWS V14.01,2013-08-27 00:17:00,
2013-08-26 20:22:00,81.4,71.5,30.11,WSW,246,6.4,6.4,72,0.00,,,0.00,VWS V14.01,2013-08-27 00:22:00,
2013-08-26 20:27:00,81.3,71.4,30.11,SW,230,4.8,6.4,72,0.00,,,0.00,VWS V14.01,2013-08-27 00:27:00,
2013-08-26 20:32:00,81.0,71.5,30.11,SSW,197,4.8,8.0,73,0.00,,,0.00,VWS V14.01,2013-08-27 00:32:00,
2013-08-26 20:37:00,80.9,71.4,30.12,SSW,213,1.6,4.8,73,0.00,,,0.00,VWS V14.01,2013-08-27 00:37:00,
2013-08-26 20:42:00,80.8,71.3,30.12,SW,217,4.8,9.6,73,0.00,,,0.00,VWS V14.01,2013-08-27 00:42:00,
2013-08-26 20:47:00,80.6,71.6,30.12,SSW,204,6.4,11.2,74,0.00,,,0.00,VWS V14.01,2013-08-27 00:47:00,
2013-08-26 20:52:00,80.4,71.4,30.12,SW,218,4.8,4.8,74,0.00,,,0.00,VWS V14.01,2013-08-27 00:52:00,
2013-08-26 20:57:00,80.3,71.3,30.12,WSW,253,3.2,4.8,74,0.00,,,0.00,VWS V14.01,2013-08-27 00:57:00,
2013-08-26 21:02:00,80.1,71.1,30.12,SW,232,1.6,3.2,74,0.00,,,0.00,VWS V14.01,2013-08-27 01:02:00,
2013-08-26 21:07:00,79.9,71.3,30.13,WSW,239,1.6,4.8,75,0.00,,,0.00,VWS V14.01,2013-08-27 01:07:00,
2013-08-26 21:12:00,79.7,71.1,30.13,WSW,245,1.6,1.6,75,0.00,,,0.00,VWS V14.01,2013-08-27 01:12:00,
2013-08-26 21:17:00,79.4,71.2,30.13,SW,228,1.6,3.2,76,0.00,,,0.00,VWS V14.01,2013-08-27 01:17:00,
2013-08-26 21:22:00,79.2,71.0,30.13,WSW,243,1.6,1.6,76,0.00,,,0.00,VWS V14.01,2013-08-27 01:22:00,
2013-08-26 21:27:00,79.1,70.9,30.13,SW,228,1.6,3.2,76,0.00,,,0.00,VWS V14.01,2013-08-27 01:27:00,
2013-08-26 21:32:00,79.0,70.8,30.13,SW,228,0.0,3.2,76,0.00,,,0.00,VWS V14.01,2013-08-27 01:32:00,
2013-08-26 21:37:00,78.9,71.1,30.13,WSW,238,1.6,3.2,77,0.00,,,0.00,VWS V14.01,2013-08-27 01:37:00,
2013-08-26 21:42:00,79.0,71.2,30.14,SW,229,1.6,6.4,77,0.00,,,0.00,VWS V14.01,2013-08-27 01:42:00,
2013-08-26 21:47:00,78.9,71.1,30.14,SW,236,1.6,3.2,77,0.00,,,0.00,VWS V14.01,2013-08-27 01:47:00,
2013-08-26 21:52:00,78.7,70.9,30.14,SW,215,1.6,3.2,77,0.00,,,0.00,VWS V14.01,2013-08-27 01:52:00,
2013-08-26 21:57:00,78.7,70.9,30.14,SW,236,1.6,4.8,77,0.00,,,0.00,VWS V14.01,2013-08-27 01:57:00,
2013-08-26 22:02:00,78.7,70.9,30.14,WSW,250,3.2,3.2,77,0.00,,,0.00,VWS V14.01,2013-08-27 02:02:00,
2013-08-26 22:07:00,78.5,71.1,30.14,WSW,246,1.6,1.6,78,0.00,,,0.00,VWS V14.01,2013-08-27 02:07:00,
2013-08-26 22:12:00,78.2,70.8,30.14,SW,230,1.6,1.6,78,0.00,,,0.00,VWS V14.01,2013-08-27 02:12:00,
2013-08-26 22:17:00,78.0,71.0,30.14,SW,221,0.0,1.6,79,0.00,,,0.00,VWS V14.01,2013-08-27 02:17:00,
2013-08-26 22:22:00,77.9,70.9,30.14,SW,225,1.6,3.2,79,0.00,,,0.00,VWS V14.01,2013-08-27 02:22:00,
2013-08-26 22:27:00,77.7,70.7,30.14,SW,227,1.6,3.2,79,0.00,,,0.00,VWS V14.01,2013-08-27 02:27:00,
2013-08-26 22:32:00,77.6,70.9,30.15,SW,236,3.2,3.2,80,0.00,,,0.00,VWS V14.01,2013-08-27 02:32:00,
2013-08-26 22:37:00,77.5,70.8,30.14,WSW,245,1.6,3.2,80,0.00,,,0.00,VWS V14.01,2013-08-27 02:37:00,
2013-08-26 22:42:00,77.4,70.8,30.14,WSW,241,1.6,3.2,80,0.00,,,0.00,VWS V14.01,2013-08-27 02:42:00,
2013-08-26 22:47:00,77.3,70.7,30.14,SW,236,1.6,3.2,80,0.00,,,0.00,VWS V14.01,2013-08-27 02:47:00,
2013-08-26 22:52:00,77.3,70.7,30.14,SW,235,3.2,3.2,80,0.00,,,0.00,VWS V14.01,2013-08-27 02:52:00,
2013-08-26 22:57:00,77.1,70.8,30.14,SW,228,1.6,3.2,81,0.00,,,0.00,VWS V14.01,2013-08-27 02:57:00,
2013-08-26 23:02:00,77.0,70.7,30.14,SW,225,1.6,4.8,81,0.00,,,0.00,VWS V14.01,2013-08-27 03:02:00,
2013-08-26 23:07:00,77.0,70.7,30.14,WSW,241,3.2,4.8,81,0.00,,,0.00,VWS V14.01,2013-08-27 03:07:00,
2013-08-26 23:12:00,76.9,70.6,30.13,WSW,241,3.2,4.8,81,0.00,,,0.00,VWS V14.01,2013-08-27 03:12:00,
2013-08-26 23:17:00,76.8,70.9,30.14,SW,234,3.2,4.8,82,0.00,,,0.00,VWS V14.01,2013-08-27 03:17:00,
2013-08-26 23:22:00,76.6,70.7,30.14,SW,232,3.2,4.8,82,0.00,,,0.00,VWS V14.01,2013-08-27 03:22:00,
2013-08-26 23:27:00,76.6,70.7,30.14,WSW,241,1.6,4.8,82,0.00,,,0.00,VWS V14.01,2013-08-27 03:27:00,
2013-08-26 23:32:00,76.5,70.6,30.14,SW,229,3.2,4.8,82,0.00,,,0.00,VWS V14.01,2013-08-27 03:32:00,
2013-08-26 23:37:00,76.5,71.0,30.14,WSW,241,3.2,4.8,83,0.00,,,0.00,VWS V14.01,2013-08-27 03:37:00,
2013-08-26 23:42:00,76.3,70.8,30.14,SW,236,4.8,4.8,83,0.00,,,0.00,VWS V14.01,2013-08-27 03:42:00,
2013-08-26 23:47:00,76.2,70.7,30.14,SW,234,3.2,6.4,83,0.00,,,0.00,VWS V14.01,2013-08-27 03:47:00,
2013-08-26 23:52:00,76.3,70.8,30.13,SSW,211,3.2,4.8,83,0.00,,,0.00,VWS V14.01,2013-08-27 03:52:00,
2013-08-26 23:57:00,76.3,70.8,30.13,SW,236,3.2,4.8,83,0.00,,,0.00,VWS V14.01,2013-08-27 03:57:00,